Time;durP1;ratioP1;P1;durP2;ratioP2;P2;SDS_P1;SDS_P2;PMS_P1;PMS_P2;Temp;Humidity;BMP_temperature;BMP_pressure;BME280_temperature;BME280_humidity;BME280_pressure;Samples;Min_cycle;Max_cycle;Signal;HPM_P1;HPM_P2
2022/09/10 00:07:49;;;;;;;3.67;1.60;;;;;19.50;98732.00;;;;16479071;28;20594;-49
2022/09/10 00:15:53;;;;;;;5.33;1.73;;;;;19.20;98722.00;;;;16456230;28;20296;-49
2022/09/10 00:23:58;;;;;;;3.63;1.40;;;;;19.10;98728.00;;;;16466007;28;20205;-47
2022/09/10 00:32:00;;;;;;;2.30;1.13;;;;;18.60;98718.00;;;;16476261;28;20299;-50
2022/09/10 00:40:05;;;;;;;2.17;1.70;;;;;18.50;98724.00;;;;16470872;28;20247;-49
2022/09/10 00:48:14;;;;;;;1.77;1.30;;;;;18.60;98712.00;;;;16455965;28;20220;-49
2022/09/10 00:56:18;;;;;;;2.17;1.10;;;;;19.00;98715.00;;;;16528493;23;20228;-50
2022/09/10 01:04:20;;;;;;;4.20;1.80;;;;;18.70;98713.00;;;;16469414;28;20304;-50
2022/09/10 01:12:36;;;;;;;4.87;1.80;;;;;18.70;98706.00;;;;16443494;28;20252;-49
2022/09/10 01:20:55;;;;;;;2.50;1.30;;;;;17.80;98722.00;;;;16454223;28;20224;-50
2022/09/10 01:29:04;;;;;;;2.90;2.33;;;;;18.50;98710.00;;;;16455307;28;20221;-49
2022/09/10 01:37:13;;;;;;;2.60;1.90;;;;;17.80;98720.00;;;;16459265;28;20232;-50
2022/09/10 01:45:17;;;;;;;2.60;1.30;;;;;18.70;98724.00;;;;16459481;28;20251;-50
2022/09/10 01:53:48;;;;;;;1.60;1.50;;;;;17.50;98720.00;;;;16459342;28;20228;-50
2022/09/10 02:01:56;;;;;;;3.17;1.63;;;;;17.40;98731.00;;;;16455755;28;20893;-49
2022/09/10 02:09:59;;;;;;;1.93;1.30;;;;;18.20;98719.00;;;;16472969;28;20228;-50
2022/09/10 02:18:08;;;;;;;2.03;1.60;;;;;17.80;98721.00;;;;16456659;28;20236;-50
2022/09/10 02:26:13;;;;;;;2.67;1.50;;;;;17.20;98718.00;;;;16454551;28;20220;-48
2022/09/10 02:34:17;;;;;;;1.97;1.47;;;;;18.00;98719.00;;;;16455041;28;20590;-49
2022/09/10 02:42:22;;;;;;;2.50;1.70;;;;;18.00;98715.00;;;;16470802;28;20224;-49
2022/09/10 02:50:26;;;;;;;2.60;2.40;;;;;18.20;98708.00;;;;16453388;28;20268;-49
2022/09/10 02:58:31;;;;;;;3.20;2.30;;;;;18.10;98701.00;;;;16455436;28;20240;-49
2022/09/10 03:06:37;;;;;;;3.30;1.90;;;;;18.00;98698.00;;;;16452659;28;20220;-49
2022/09/10 03:14:40;;;;;;;3.87;2.10;;;;;18.10;98695.00;;;;16450212;28;20231;-48
2022/09/10 03:22:44;;;;;;;3.03;1.70;;;;;18.20;98690.00;;;;16451864;28;20261;-48
2022/09/10 03:30:50;;;;;;;2.77;1.70;;;;;18.00;98689.00;;;;16448823;28;20386;-48
2022/09/10 03:38:54;;;;;;;3.30;1.80;;;;;18.20;98680.00;;;;16452352;28;20652;-49
2022/09/10 03:46:56;;;;;;;1.57;1.47;;;;;18.00;98682.00;;;;16451685;28;20759;-48
2022/09/10 03:55:00;;;;;;;2.50;2.30;;;;;18.00;98685.00;;;;16451946;28;20303;-50
2022/09/10 04:03:04;;;;;;;2.80;1.73;;;;;18.00;98683.00;;;;16449881;28;20733;-49
2022/09/10 04:11:08;;;;;;;2.63;1.47;;;;;18.10;98677.00;;;;16452260;28;20597;-50
2022/09/10 04:19:11;;;;;;;1.87;1.60;;;;;18.20;98682.00;;;;16450666;28;20307;-49
2022/09/10 04:27:16;;;;;;;1.73;1.50;;;;;18.10;98675.00;;;;16448630;28;20295;-48
2022/09/10 04:35:20;;;;;;;1.50;1.40;;;;;18.10;98677.00;;;;16449665;28;20216;-48
2022/09/10 04:43:25;;;;;;;3.80;1.77;;;;;18.40;98682.00;;;;16451633;28;20216;-49
2022/09/10 04:51:28;;;;;;;2.50;1.70;;;;;18.60;98692.00;;;;16448862;28;20228;-49
2022/09/10 04:59:33;;;;;;;3.37;1.70;;;;;18.70;98697.00;;;;16455629;28;20229;-50
2022/09/10 05:07:36;;;;;;;1.80;1.00;;;;;18.60;98706.00;;;;16467903;28;20201;-49
2022/09/10 05:15:40;;;;;;;2.17;1.07;;;;;18.30;98704.00;;;;16460220;28;20610;-49
2022/09/10 05:23:44;;;;;;;3.17;1.50;;;;;18.50;98706.00;;;;16447229;28;20662;-50
2022/09/10 05:31:48;;;;;;;2.60;1.07;;;;;18.80;98706.00;;;;16450198;28;20220;-49
2022/09/10 05:39:50;;;;;;;2.00;1.30;;;;;18.90;98707.00;;;;16449546;28;20771;-49
2022/09/10 05:47:56;;;;;;;3.80;1.27;;;;;19.00;98705.00;;;;16443741;28;20210;-49
2022/09/10 05:55:59;;;;;;;2.10;1.00;;;;;18.90;98712.00;;;;16465450;28;20311;-50
2022/09/10 06:04:03;;;;;;;1.13;0.80;;;;;18.90;98710.00;;;;16449764;28;20243;-50
2022/09/10 06:12:06;;;;;;;2.00;1.03;;;;;18.70;98714.00;;;;16439348;28;22148;-50
2022/09/10 06:20:11;;;;;;;3.77;1.60;;;;;18.80;98724.00;;;;16439375;28;20220;-49
2022/09/10 06:28:15;;;;;;;2.70;1.20;;;;;18.90;98724.00;;;;16443685;28;20201;-48
2022/09/10 06:36:19;;;;;;;1.37;1.03;;;;;18.80;98722.00;;;;16447718;28;20736;-49
2022/09/10 06:44:25;;;;;;;2.00;1.00;;;;;18.80;98730.00;;;;16458983;28;20257;-50
2022/09/10 06:52:36;;;;;;;1.07;0.97;;;;;19.20;98743.00;;;;16447067;28;20220;-49
2022/09/10 07:00:42;;;;;;;2.03;1.13;;;;;19.50;98739.00;;;;16450585;28;20324;-50
2022/09/10 07:08:46;;;;;;;1.20;0.87;;;;;19.40;98740.00;;;;16457409;28;20280;-50
2022/09/10 07:16:50;;;;;;;2.40;0.90;;;;;19.20;98749.00;;;;16449606;28;20610;-49
2022/09/10 07:24:55;;;;;;;3.80;1.40;;;;;19.50;98767.00;;;;16445434;28;20216;-50
2022/09/10 07:33:07;;;;;;;2.93;1.00;;;;;19.50;98781.00;;;;16461117;28;20227;-50
2022/09/10 07:41:13;;;;;;;3.80;0.83;;;;;19.70;98783.00;;;;16448692;28;20233;-49
2022/09/10 07:49:15;;;;;;;2.37;1.27;;;;;19.20;98801.00;;;;16443584;28;20193;-50
2022/09/10 07:57:23;;;;;;;1.67;0.70;;;;;20.00;98797.00;;;;16438859;28;20279;-50
2022/09/10 08:05:27;;;;;;;0.90;0.70;;;;;20.10;98799.00;;;;16449201;28;20304;-50
2022/09/10 08:13:32;;;;;;;0.80;0.80;;;;;20.50;98812.00;;;;16447597;28;20237;-47
2022/09/10 08:21:35;;;;;;;0.90;0.70;;;;;20.00;98806.00;;;;16442405;28;20221;-50
2022/09/10 08:29:39;;;;;;;5.13;2.17;;;;;20.60;98809.00;;;;16453020;28;20842;-50
2022/09/10 08:37:44;;;;;;;1.00;0.60;;;;;21.00;98815.00;;;;16459226;28;20251;-50
2022/09/10 08:45:53;;;;;;;1.00;0.90;;;;;20.90;98814.00;;;;16454283;28;20224;-50
2022/09/10 08:53:59;;;;;;;6.77;4.37;;;;;21.00;98811.00;;;;16466328;28;20228;-49
2022/09/10 09:02:13;;;;;;;2.40;0.80;;;;;21.40;98808.00;;;;16448560;28;20220;-49
2022/09/10 09:10:20;;;;;;;3.23;0.77;;;;;21.80;98804.00;;;;16437954;28;20227;-49
2022/09/10 09:18:28;;;;;;;2.97;1.13;;;;;21.10;98794.00;;;;16442857;28;20287;-49
2022/09/10 09:26:36;;;;;;;3.33;1.10;;;;;20.50;98813.00;;;;16443834;28;20216;-47
2022/09/10 09:34:44;;;;;;;4.53;1.17;;;;;20.60;98808.00;;;;16460074;28;20744;-49
2022/09/10 09:42:54;;;;;;;2.00;1.00;;;;;20.80;98810.00;;;;16458308;28;20639;-48
2022/09/10 09:51:00;;;;;;;2.17;0.90;;;;;21.00;98802.00;;;;16457883;28;20935;-49
2022/09/10 09:59:10;;;;;;;5.10;1.40;;;;;20.70;98812.00;;;;16436353;28;20901;-48
2022/09/10 10:07:14;;;;;;;3.63;1.10;;;;;20.90;98810.00;;;;16443897;28;20219;-48
2022/09/10 10:15:36;;;;;;;1.13;0.80;;;;;21.70;98799.00;;;;16457304;28;20232;-48
2022/09/10 10:23:40;;;;;;;3.23;1.00;;;;;21.50;98794.00;;;;16456254;28;20646;-48
2022/09/10 10:31:44;;;;;;;2.40;1.10;;;;;21.40;98780.00;;;;16457010;28;20228;-48
2022/09/10 10:40:04;;;;;;;1.77;0.90;;;;;21.30;98784.00;;;;16454598;28;20232;-48
2022/09/10 10:48:12;;;;;;;1.80;0.70;;;;;21.70;98783.00;;;;16455843;28;20707;-48
2022/09/10 10:56:20;;;;;;;1.30;0.80;;;;;21.80;98780.00;;;;16453398;28;20232;-48
2022/09/10 11:04:28;;;;;;;1.17;0.70;;;;;21.70;98769.00;;;;16455104;28;20820;-48
2022/09/10 11:12:34;;;;;;;2.20;1.00;;;;;21.60;98762.00;;;;16445560;28;20701;-47
2022/09/10 11:20:41;;;;;;;3.13;1.00;;;;;22.90;98757.00;;;;16440882;28;20312;-48
2022/09/10 11:28:53;;;;;;;3.47;0.80;;;;;22.10;98753.00;;;;16434535;28;20205;-47
2022/09/10 11:36:58;;;;;;;2.20;0.80;;;;;23.10;98744.00;;;;16447732;28;20585;-48
2022/09/10 11:45:07;;;;;;;1.10;0.80;;;;;22.10;98743.00;;;;16446306;28;20224;-47
2022/09/10 11:53:13;;;;;;;1.70;0.90;;;;;22.20;98735.00;;;;16448336;28;20232;-48
2022/09/10 12:01:26;;;;;;;1.40;0.80;;;;;21.80;98743.00;;;;16447932;28;20231;-47
2022/09/10 12:09:34;;;;;;;1.23;1.00;;;;;22.30;98738.00;;;;16440005;28;20233;-47
2022/09/10 12:17:41;;;;;;;1.97;1.27;;;;;22.80;98730.00;;;;16441575;28;20220;-48
2022/09/10 12:25:43;;;;;;;2.00;1.10;;;;;24.80;98725.00;;;;16446657;28;20541;-48
2022/09/10 12:34:11;;;;;;;1.60;1.00;;;;;23.60;98732.00;;;;16434154;28;20247;-47
2022/09/10 12:42:35;;;;;;;2.23;0.90;;;;;22.30;98732.00;;;;16442357;28;20278;-47
2022/09/10 12:50:44;;;;;;;1.90;1.43;;;;;22.60;98723.00;;;;16444520;28;20680;-48
2022/09/10 12:58:59;;;;;;;2.03;0.93;;;;;22.40;98722.00;;;;16448485;28;20305;-48
2022/09/10 13:07:05;;;;;;;3.60;1.47;;;;;22.40;98725.00;;;;16449084;28;20307;-48
2022/09/10 13:15:17;;;;;;;0.70;0.60;;;;;22.20;98725.00;;;;16451168;28;20227;-48
2022/09/10 13:23:46;;;;;;;1.33;0.80;;;;;22.50;98718.00;;;;16451142;28;20237;-47
2022/09/10 13:31:59;;;;;;;1.67;0.93;;;;;22.20;98714.00;;;;16446955;28;20225;-47
2022/09/10 13:40:24;;;;;;;1.67;1.00;;;;;22.20;98723.00;;;;16454495;28;20228;-47
2022/09/10 13:48:29;;;;;;;3.53;1.07;;;;;22.50;98711.00;;;;16456369;28;20200;-47
2022/09/10 13:56:32;;;;;;;2.00;0.80;;;;;23.30;98703.00;;;;16453388;28;20234;-48
2022/09/10 14:04:37;;;;;;;2.60;0.83;;;;;22.60;98710.00;;;;16454277;28;20300;-47
2022/09/10 14:12:40;;;;;;;1.77;0.83;;;;;22.60;98721.00;;;;16435971;28;20236;-48
2022/09/10 14:20:44;;;;;;;3.43;1.13;;;;;21.40;98745.00;;;;16439474;28;20232;-48
2022/09/10 14:28:52;;;;;;;1.50;1.00;;;;;21.10;98742.00;;;;16448435;28;20283;-47
2022/09/10 14:36:57;;;;;;;1.50;1.20;;;;;21.50;98740.00;;;;16452146;28;20270;-47
2022/09/10 14:45:00;;;;;;;2.13;1.93;;;;;20.70;98731.00;;;;16474592;23;20318;-52
2022/09/10 14:53:04;;;;;;;2.80;1.90;;;;;20.90;98727.00;;;;16506372;28;20335;-51
2022/09/10 15:01:08;;;;;;;3.50;2.20;;;;;22.40;98724.00;;;;16529116;28;20230;-51
2022/09/10 15:09:12;;;;;;;1.93;1.20;;;;;25.60;98697.00;;;;16522460;28;20604;-50
2022/09/10 15:17:16;;;;;;;2.07;1.10;;;;;23.00;98694.00;;;;16524274;28;20569;-51
2022/09/10 15:25:28;;;;;;;2.30;0.90;;;;;22.70;98719.00;;;;16530573;28;20220;-51
2022/09/10 15:33:30;;;;;;;2.30;0.80;;;;;21.70;98721.00;;;;16518553;28;20220;-51
2022/09/10 15:41:34;;;;;;;4.70;1.37;;;;;21.50;98736.00;;;;16519021;28;20795;-50
2022/09/10 15:49:37;;;;;;;2.50;0.83;;;;;21.50;98739.00;;;;16517423;28;20234;-51
2022/09/10 15:57:41;;;;;;;1.97;1.50;;;;;19.70;98793.00;;;;16526024;28;20614;-51
2022/09/10 16:05:43;;;;;;;3.37;1.53;;;;;18.50;98823.00;;;;16518655;28;20707;-50
2022/09/10 16:13:47;;;;;;;5.90;2.17;;;;;19.80;98807.00;;;;16515629;28;20724;-50
2022/09/10 16:21:50;;;;;;;3.60;2.00;;;;;19.60;98807.00;;;;16515277;28;20204;-51
2022/09/10 16:29:53;;;;;;;5.37;2.40;;;;;19.90;98805.00;;;;16529354;28;20223;-50
2022/09/10 16:37:56;;;;;;;2.20;1.40;;;;;18.90;98814.00;;;;16510526;28;20230;-49
2022/09/10 16:45:59;;;;;;;2.87;1.53;;;;;19.20;98814.00;;;;16517296;28;20371;-50
2022/09/10 16:54:04;;;;;;;1.80;1.63;;;;;21.20;98808.00;;;;16527566;28;20370;-51
2022/09/10 17:02:09;;;;;;;3.67;2.07;;;;;22.10;98793.00;;;;16531107;28;20211;-51
2022/09/10 17:10:11;;;;;;;1.87;1.50;;;;;23.80;98778.00;;;;16533009;28;20220;-51
2022/09/10 17:18:15;;;;;;;2.07;1.80;;;;;22.70;98786.00;;;;16528351;28;20234;-51
2022/09/10 17:26:17;;;;;;;3.50;1.70;;;;;22.40;98802.00;;;;16536493;28;20679;-51
2022/09/10 17:34:23;;;;;;;3.10;1.63;;;;;22.00;98813.00;;;;16534052;28;20630;-51
2022/09/10 17:42:25;;;;;;;3.73;3.37;;;;;20.20;98828.00;;;;16522398;28;20282;-50
2022/09/10 17:50:29;;;;;;;3.60;1.60;;;;;18.80;98854.00;;;;16530259;28;20232;-50
2022/09/10 17:58:32;;;;;;;1.77;1.33;;;;;18.50;98855.00;;;;16535692;28;20227;-51
2022/09/10 18:06:36;;;;;;;2.53;2.20;;;;;18.80;98866.00;;;;16537434;28;20303;-51
2022/09/10 18:14:39;;;;;;;4.97;1.63;;;;;19.00;98851.00;;;;16524354;28;20220;-51
2022/09/10 18:22:43;;;;;;;2.93;2.23;;;;;19.40;98856.00;;;;16528056;28;20214;-52
2022/09/10 18:30:45;;;;;;;3.13;2.80;;;;;19.20;98858.00;;;;16527224;28;20218;-51
2022/09/10 18:38:49;;;;;;;2.23;2.03;;;;;19.90;98859.00;;;;16514054;28;20227;-52
2022/09/10 18:46:52;;;;;;;1.53;1.40;;;;;19.50;98884.00;;;;16512003;28;20224;-52
2022/09/10 18:54:56;;;;;;;2.20;2.00;;;;;20.50;98876.00;;;;16515422;28;20315;-51
2022/09/10 19:02:58;;;;;;;2.40;1.47;;;;;19.60;98882.00;;;;16505124;28;20228;-51
2022/09/10 19:11:02;;;;;;;1.93;1.70;;;;;20.10;98876.00;;;;16503939;28;20200;-51
2022/09/10 19:19:07;;;;;;;2.23;1.40;;;;;19.70;98878.00;;;;16507105;28;20619;-51
2022/09/10 19:27:10;;;;;;;2.70;1.07;;;;;19.60;98870.00;;;;16517012;28;20279;-51
2022/09/10 19:35:13;;;;;;;3.47;1.40;;;;;19.50;98878.00;;;;16503382;28;20293;-51
2022/09/10 19:43:17;;;;;;;1.47;1.37;;;;;19.20;98887.00;;;;16500729;28;20228;-52
2022/09/10 19:51:20;;;;;;;2.17;1.50;;;;;19.40;98880.00;;;;16510974;28;20200;-52
2022/09/10 19:59:24;;;;;;;2.13;1.17;;;;;18.90;98881.00;;;;16506033;28;20239;-52
2022/09/10 20:07:29;;;;;;;1.93;1.50;;;;;19.10;98884.00;;;;16502965;28;20247;-51
2022/09/10 20:15:33;;;;;;;1.10;1.00;;;;;19.30;98889.00;;;;16506772;28;20723;-51
2022/09/10 20:23:36;;;;;;;1.20;1.10;;;;;20.00;98882.00;;;;16520330;28;20334;-52
2022/09/10 20:31:42;;;;;;;2.40;1.20;;;;;19.30;98881.00;;;;16536267;28;20664;-52
2022/09/10 20:39:47;;;;;;;3.30;2.50;;;;;19.40;98883.00;;;;16525911;28;20755;-51
2022/09/10 20:47:51;;;;;;;2.43;1.13;;;;;18.60;98886.00;;;;16527868;28;20235;-51
2022/09/10 20:56:04;;;;;;;1.73;1.30;;;;;19.20;98883.00;;;;16525396;28;20577;-51
2022/09/10 21:04:08;;;;;;;1.10;1.10;;;;;18.30;98890.00;;;;16514730;28;20755;-51
2022/09/10 21:12:11;;;;;;;1.40;1.10;;;;;18.80;98896.00;;;;16518847;28;20196;-52
2022/09/10 21:20:15;;;;;;;2.40;1.33;;;;;18.40;98890.00;;;;16515187;28;20234;-51
2022/09/10 21:28:18;;;;;;;1.70;1.60;;;;;18.50;98895.00;;;;16517544;28;20220;-52
2022/09/10 21:36:23;;;;;;;1.47;1.07;;;;;18.20;98890.00;;;;16515725;28;20226;-51
2022/09/10 21:44:26;;;;;;;1.77;1.30;;;;;18.30;98909.00;;;;16516701;28;20240;-52
2022/09/10 21:52:30;;;;;;;0.93;0.90;;;;;18.40;98912.00;;;;16505279;28;20239;-51
2022/09/10 22:00:32;;;;;;;1.93;1.20;;;;;18.70;98919.00;;;;16522353;28;20227;-51
2022/09/10 22:08:37;;;;;;;2.03;1.33;;;;;18.40;98912.00;;;;16514944;28;20230;-51
2022/09/10 22:16:39;;;;;;;2.10;1.37;;;;;18.40;98911.00;;;;16524434;28;20228;-51
2022/09/10 22:24:43;;;;;;;1.47;1.37;;;;;18.40;98923.00;;;;16528514;28;20235;-50
2022/09/10 22:32:45;;;;;;;1.17;1.00;;;;;18.40;98919.00;;;;16519608;28;20200;-51
2022/09/10 22:40:50;;;;;;;2.17;1.30;;;;;18.20;98929.00;;;;16518537;28;20228;-48
2022/09/10 22:48:53;;;;;;;1.10;1.10;;;;;19.10;98930.00;;;;16521691;28;20310;-49
2022/09/10 22:56:58;;;;;;;1.97;1.63;;;;;18.00;98932.00;;;;16531658;28;20588;-50
2022/09/10 23:05:00;;;;;;;3.80;1.70;;;;;18.70;98930.00;;;;16526371;28;20275;-51
2022/09/10 23:13:04;;;;;;;2.43;1.30;;;;;18.20;98936.00;;;;16520161;28;20210;-50
2022/09/10 23:21:07;;;;;;;2.60;1.70;;;;;17.90;98938.00;;;;16527424;28;20427;-51
2022/09/10 23:29:11;;;;;;;2.83;1.43;;;;;18.30;98939.00;;;;16517014;28;20577;-51
2022/09/10 23:37:13;;;;;;;1.20;1.20;;;;;18.20;98940.00;;;;16532949;28;20266;-51
2022/09/10 23:45:17;;;;;;;2.27;1.60;;;;;19.00;98929.00;;;;16525683;28;20234;-51
2022/09/10 23:53:20;;;;;;;1.73;1.63;;;;;18.80;98929.00;;;;16524375;28;20359;-49
